createdAt,value
2018-06-27T00:00:08.914Z,1013.58
2018-06-27T00:01:08.910Z,1013.54
2018-06-27T00:02:08.910Z,1013.60
2018-06-27T00:03:08.913Z,1013.57
2018-06-27T00:04:08.915Z,1013.57
2018-06-27T00:05:08.912Z,1013.60
2018-06-27T00:06:08.911Z,1013.55
2018-06-27T00:07:08.911Z,1013.59
2018-06-27T00:08:08.913Z,1013.59
2018-06-27T00:09:08.910Z,1013.55
2018-06-27T00:10:08.906Z,1013.54
2018-06-27T00:11:08.913Z,1013.54
2018-06-27T00:12:08.908Z,1013.50
2018-06-27T00:13:08.903Z,1013.54
2018-06-27T00:14:08.904Z,1013.53
2018-06-27T00:15:08.904Z,1013.51
2018-06-27T00:16:08.903Z,1013.51
2018-06-27T00:17:08.943Z,1013.46
2018-06-27T00:18:08.899Z,1013.46
2018-06-27T00:19:08.899Z,1013.50
2018-06-27T00:20:08.900Z,1013.46
2018-06-27T00:21:08.898Z,1013.49
2018-06-27T00:22:08.901Z,1013.50
2018-06-27T00:23:08.896Z,1013.47
2018-06-27T00:24:08.900Z,1013.45
2018-06-27T00:25:08.895Z,1013.49
2018-06-27T00:26:08.893Z,1013.48
2018-06-27T00:27:08.891Z,1013.45
2018-06-27T00:28:08.911Z,1013.48
2018-06-27T00:29:08.892Z,1013.45
2018-06-27T00:30:08.892Z,1013.48
2018-06-27T00:31:08.892Z,1013.48
2018-06-27T00:32:08.889Z,1013.46
2018-06-27T00:33:08.894Z,1013.47
2018-06-27T00:34:08.895Z,1013.44
2018-06-27T00:35:08.887Z,1013.44
2018-06-27T00:36:08.886Z,1013.49
2018-06-27T00:37:08.886Z,1013.45
2018-06-27T00:38:08.884Z,1013.44
2018-06-27T00:39:08.887Z,1013.47
2018-06-27T00:40:08.883Z,1013.46
2018-06-27T00:41:08.881Z,1013.43
2018-06-27T00:42:08.880Z,1013.43
2018-06-27T00:43:08.882Z,1013.44
2018-06-27T00:44:08.881Z,1013.47
2018-06-27T00:45:08.881Z,1013.45
2018-06-27T00:46:08.879Z,1013.47
2018-06-27T00:47:08.875Z,1013.45
2018-06-27T00:48:08.880Z,1013.44
2018-06-27T00:49:08.878Z,1013.42
2018-06-27T00:50:08.877Z,1013.42
2018-06-27T00:51:08.873Z,1013.39
2018-06-27T00:52:08.868Z,1013.40
2018-06-27T00:53:08.872Z,1013.37
2018-06-27T00:54:08.874Z,1013.38
2018-06-27T00:55:08.869Z,1013.38
2018-06-27T00:56:08.869Z,1013.38
2018-06-27T00:57:08.863Z,1013.38
2018-06-27T00:58:08.863Z,1013.37
2018-06-27T00:59:08.865Z,1013.40
2018-06-27T01:00:08.866Z,1013.37
2018-06-27T01:01:08.861Z,1013.37
2018-06-27T01:02:08.858Z,1013.31
2018-06-27T01:03:08.859Z,1013.32
2018-06-27T01:04:08.861Z,1013.35
2018-06-27T01:05:08.858Z,1013.38
2018-06-27T01:06:08.859Z,1013.39
2018-06-27T01:07:08.852Z,1013.37
2018-06-27T01:08:08.853Z,1013.37
2018-06-27T01:09:08.856Z,1013.36
2018-06-27T01:10:08.854Z,1013.36
2018-06-27T01:11:08.901Z,1013.40
2018-06-27T01:12:08.850Z,1013.41
2018-06-27T01:13:08.853Z,1013.38
2018-06-27T01:14:08.848Z,1013.39
2018-06-27T01:15:08.848Z,1013.38
2018-06-27T01:16:08.847Z,1013.37
2018-06-27T01:17:08.847Z,1013.41
2018-06-27T01:18:08.845Z,1013.40
2018-06-27T01:19:08.843Z,1013.39
2018-06-27T01:20:08.847Z,1013.39
2018-06-27T01:21:08.840Z,1013.38
2018-06-27T01:22:08.839Z,1013.41
2018-06-27T01:23:08.857Z,1013.40
2018-06-27T01:24:08.839Z,1013.37
2018-06-27T01:25:08.835Z,1013.42
2018-06-27T01:26:08.837Z,1013.43
2018-06-27T01:27:08.837Z,1013.45
2018-06-27T01:28:08.831Z,1013.45
2018-06-27T01:29:08.831Z,1013.46
2018-06-27T01:30:08.833Z,1013.46
2018-06-27T01:31:08.830Z,1013.48
2018-06-27T01:32:08.831Z,1013.46
2018-06-27T01:33:08.823Z,1013.44
2018-06-27T01:34:08.824Z,1013.44
2018-06-27T01:35:08.823Z,1013.44
2018-06-27T01:36:08.822Z,1013.42
2018-06-27T01:37:08.825Z,1013.46
2018-06-27T01:38:08.816Z,1013.50
2018-06-27T01:39:08.818Z,1013.46
2018-06-27T01:40:08.820Z,1013.49
2018-06-27T01:41:08.819Z,1013.48
2018-06-27T01:42:08.819Z,1013.43
2018-06-27T01:43:08.815Z,1013.45
2018-06-27T01:44:08.813Z,1013.46
2018-06-27T01:45:08.811Z,1013.41
2018-06-27T01:46:08.809Z,1013.44
2018-06-27T01:47:08.807Z,1013.37
2018-06-27T01:48:08.806Z,1013.46
2018-06-27T01:49:08.807Z,1013.42
2018-06-27T01:50:08.804Z,1013.41
2018-06-27T01:51:08.801Z,1013.41
2018-06-27T01:52:08.802Z,1013.37
2018-06-27T01:53:08.797Z,1013.43
2018-06-27T01:54:08.800Z,1013.40
2018-06-27T01:55:08.799Z,1013.38
2018-06-27T01:56:08.797Z,1013.37
2018-06-27T01:57:08.795Z,1013.36
2018-06-27T01:58:08.792Z,1013.42
2018-06-27T01:59:08.790Z,1013.40
2018-06-27T02:00:08.790Z,1013.38
2018-06-27T02:01:08.789Z,1013.43
2018-06-27T02:02:08.791Z,1013.41
2018-06-27T02:03:08.782Z,1013.40
2018-06-27T02:04:08.786Z,1013.38
2018-06-27T02:05:08.781Z,1013.41
2018-06-27T02:06:08.785Z,1013.42
2018-06-27T02:07:08.784Z,1013.39
2018-06-27T02:08:08.780Z,1013.41
2018-06-27T02:09:08.778Z,1013.41
2018-06-27T02:10:08.778Z,1013.41
2018-06-27T02:11:08.776Z,1013.40
2018-06-27T02:12:08.774Z,1013.44
2018-06-27T02:13:08.772Z,1013.43
2018-06-27T02:14:08.768Z,1013.41
2018-06-27T02:15:08.770Z,1013.43
2018-06-27T02:16:08.766Z,1013.44
2018-06-27T02:17:08.765Z,1013.45
2018-06-27T02:18:08.765Z,1013.48
2018-06-27T02:19:08.760Z,1013.46
2018-06-27T02:20:08.764Z,1013.46
2018-06-27T02:21:08.759Z,1013.44
2018-06-27T02:22:08.757Z,1013.49
2018-06-27T02:23:08.760Z,1013.49
2018-06-27T02:24:08.751Z,1013.47
2018-06-27T02:25:08.751Z,1013.50
2018-06-27T02:26:08.753Z,1013.48
2018-06-27T02:27:08.753Z,1013.50
2018-06-27T02:28:08.749Z,1013.52
2018-06-27T02:29:08.753Z,1013.48
2018-06-27T02:30:08.746Z,1013.43
2018-06-27T02:31:08.741Z,1013.43
2018-06-27T02:32:08.744Z,1013.46
2018-06-27T02:33:08.738Z,1013.44
2018-06-27T02:34:08.736Z,1013.44
2018-06-27T02:35:08.740Z,1013.44
2018-06-27T02:36:08.736Z,1013.46
2018-06-27T02:37:08.736Z,1013.47
2018-06-27T02:38:08.737Z,1013.53
2018-06-27T02:39:08.728Z,1013.50
2018-06-27T02:40:08.734Z,1013.53
2018-06-27T02:41:08.730Z,1013.56
2018-06-27T02:42:08.733Z,1013.57
2018-06-27T02:43:08.728Z,1013.52
2018-06-27T02:44:08.720Z,1013.60
2018-06-27T02:45:08.722Z,1013.58
2018-06-27T02:46:08.721Z,1013.61
2018-06-27T02:47:09.441Z,1013.65
2018-06-27T02:48:08.718Z,1013.66
2018-06-27T02:49:08.712Z,1013.64
2018-06-27T02:50:08.714Z,1013.68
2018-06-27T02:51:08.714Z,1013.65
2018-06-27T02:52:08.710Z,1013.64
2018-06-27T02:53:08.710Z,1013.66
2018-06-27T02:54:08.701Z,1013.63
2018-06-27T02:55:08.709Z,1013.63
2018-06-27T02:56:08.704Z,1013.66
2018-06-27T02:57:08.710Z,1013.66
2018-06-27T02:58:08.706Z,1013.67
2018-06-27T02:59:08.704Z,1013.68
2018-06-27T03:00:08.699Z,1013.72
2018-06-27T03:01:08.692Z,1013.69
2018-06-27T03:02:08.695Z,1013.68
2018-06-27T03:03:08.693Z,1013.71
2018-06-27T03:04:08.688Z,1013.68
2018-06-27T03:05:08.691Z,1013.70
2018-06-27T03:06:08.698Z,1013.72
2018-06-27T03:07:08.724Z,1013.72
2018-06-27T03:08:08.687Z,1013.70
2018-06-27T03:09:08.683Z,1013.72
2018-06-27T03:10:08.682Z,1013.71
2018-06-27T03:11:08.681Z,1013.71
2018-06-27T03:12:08.685Z,1013.70
2018-06-27T03:13:08.678Z,1013.72
2018-06-27T03:14:08.671Z,1013.72
2018-06-27T03:15:08.676Z,1013.73
2018-06-27T03:16:08.668Z,1013.74
2018-06-27T03:17:08.673Z,1013.75
2018-06-27T03:18:08.667Z,1013.73
2018-06-27T03:19:08.672Z,1013.74
2018-06-27T03:20:08.665Z,1013.73
2018-06-27T03:21:08.668Z,1013.72
2018-06-27T03:22:08.662Z,1013.74
2018-06-27T03:23:08.661Z,1013.72
2018-06-27T03:24:08.656Z,1013.74
2018-06-27T03:25:08.656Z,1013.72
2018-06-27T03:26:08.665Z,1013.69
2018-06-27T03:27:08.653Z,1013.72
2018-06-27T03:28:08.652Z,1013.71
2018-06-27T03:29:08.655Z,1013.74
2018-06-27T03:30:08.647Z,1013.73
2018-06-27T03:31:08.648Z,1013.73
2018-06-27T03:32:08.647Z,1013.74
2018-06-27T03:33:08.640Z,1013.74
2018-06-27T03:34:08.641Z,1013.67
2018-06-27T03:35:08.636Z,1013.68
2018-06-27T03:36:08.642Z,1013.66
2018-06-27T03:37:08.635Z,1013.67
2018-06-27T03:38:08.631Z,1013.69
2018-06-27T03:39:08.632Z,1013.69
2018-06-27T03:40:08.631Z,1013.69
2018-06-27T03:41:08.631Z,1013.69
2018-06-27T03:42:08.628Z,1013.76
2018-06-27T03:43:08.625Z,1013.73
2018-06-27T03:44:08.623Z,1013.71
2018-06-27T03:45:08.618Z,1013.75
2018-06-27T03:46:08.618Z,1013.80
2018-06-27T03:47:08.615Z,1013.75
2018-06-27T03:48:08.609Z,1013.83
2018-06-27T03:49:08.612Z,1013.83
2018-06-27T03:50:08.608Z,1013.83
2018-06-27T03:51:08.610Z,1013.82
2018-06-27T03:52:08.609Z,1013.87
2018-06-27T03:53:08.604Z,1013.82
2018-06-27T03:54:08.607Z,1013.83
2018-06-27T03:55:08.603Z,1013.83
2018-06-27T03:56:08.600Z,1013.88
2018-06-27T03:57:08.597Z,1013.88
2018-06-27T03:58:08.597Z,1013.93
2018-06-27T03:59:08.672Z,1013.94
2018-06-27T04:00:08.596Z,1013.96
2018-06-27T04:01:08.591Z,1013.98
2018-06-27T04:02:08.584Z,1013.99
2018-06-27T04:03:08.587Z,1013.99
2018-06-27T04:04:08.595Z,1014.01
2018-06-27T04:05:08.579Z,1014.02
2018-06-27T04:06:08.577Z,1013.98
2018-06-27T04:07:08.578Z,1013.98
2018-06-27T04:08:08.582Z,1013.97
2018-06-27T04:09:08.574Z,1013.98
2018-06-27T04:10:08.610Z,1013.99
2018-06-27T04:11:08.568Z,1014.04
2018-06-27T04:12:08.573Z,1014.03
2018-06-27T04:13:08.698Z,1014.05
2018-06-27T04:14:08.577Z,1014.00
2018-06-27T04:15:08.560Z,1014.02
2018-06-27T04:16:08.559Z,1014.00
2018-06-27T04:17:08.607Z,1014.03
2018-06-27T04:18:08.559Z,1014.03
2018-06-27T04:19:08.558Z,1014.03
2018-06-27T04:20:08.575Z,1014.00
2018-06-27T04:21:08.553Z,1014.06
2018-06-27T04:22:08.553Z,1014.04
2018-06-27T04:23:08.545Z,1014.05
2018-06-27T04:24:08.548Z,1014.06
2018-06-27T04:25:08.546Z,1014.10
2018-06-27T04:26:08.544Z,1014.09
2018-06-27T04:27:08.541Z,1014.09
2018-06-27T04:28:08.542Z,1014.08
2018-06-27T04:29:08.539Z,1014.11
2018-06-27T04:30:08.539Z,1014.10
2018-06-27T04:31:08.530Z,1014.14
2018-06-27T04:32:08.533Z,1014.15
2018-06-27T04:33:08.526Z,1014.15
2018-06-27T04:34:08.527Z,1014.17
2018-06-27T04:35:08.534Z,1014.19
2018-06-27T04:36:08.575Z,1014.23
2018-06-27T04:37:08.523Z,1014.19
2018-06-27T04:38:08.521Z,1014.28
2018-06-27T04:39:08.518Z,1014.25
2018-06-27T04:40:08.519Z,1014.24
2018-06-27T04:41:08.513Z,1014.20
2018-06-27T04:42:08.520Z,1014.24
2018-06-27T04:43:08.526Z,1014.22
2018-06-27T04:44:08.509Z,1014.23
2018-06-27T04:45:08.508Z,1014.19
2018-06-27T04:46:08.507Z,1014.18
2018-06-27T04:47:08.504Z,1014.21
2018-06-27T04:48:08.503Z,1014.21
2018-06-27T04:49:08.501Z,1014.22
2018-06-27T04:50:08.500Z,1014.20
2018-06-27T04:51:08.497Z,1014.23
2018-06-27T04:52:08.496Z,1014.22
2018-06-27T04:53:08.494Z,1014.26
2018-06-27T04:54:08.490Z,1014.23
2018-06-27T04:55:08.490Z,1014.20
2018-06-27T04:56:08.489Z,1014.21
2018-06-27T04:57:08.483Z,1014.19
2018-06-27T04:58:08.484Z,1014.20
2018-06-27T04:59:08.484Z,1014.19
2018-06-27T05:00:08.485Z,1014.19
2018-06-27T05:01:08.478Z,1014.20
2018-06-27T05:02:08.476Z,1014.20
2018-06-27T05:03:08.471Z,1014.19
2018-06-27T05:04:08.473Z,1014.21
2018-06-27T05:05:08.474Z,1014.17
2018-06-27T05:06:08.472Z,1014.19
2018-06-27T05:07:08.470Z,1014.20
2018-06-27T05:08:08.466Z,1014.23
2018-06-27T05:09:08.464Z,1014.24
2018-06-27T05:10:08.463Z,1014.23
2018-06-27T05:11:08.461Z,1014.15
2018-06-27T05:12:08.463Z,1014.22
2018-06-27T05:13:08.456Z,1014.18
2018-06-27T05:14:08.464Z,1014.20
2018-06-27T05:15:08.456Z,1014.19
2018-06-27T05:16:08.454Z,1014.18
2018-06-27T05:17:08.452Z,1014.20
2018-06-27T05:18:08.446Z,1014.18
2018-06-27T05:19:08.448Z,1014.19
2018-06-27T05:20:08.445Z,1014.20
2018-06-27T05:21:08.445Z,1014.21
2018-06-27T05:22:08.447Z,1014.16
2018-06-27T05:23:08.460Z,1014.17
2018-06-27T05:24:08.443Z,1014.17
2018-06-27T05:25:08.436Z,1014.17
2018-06-27T05:26:08.436Z,1014.19
2018-06-27T05:27:08.431Z,1014.20
2018-06-27T05:28:08.433Z,1014.21
2018-06-27T05:29:08.434Z,1014.20
2018-06-27T05:30:08.429Z,1014.22
2018-06-27T05:31:08.428Z,1014.23
2018-06-27T05:32:08.427Z,1014.21
2018-06-27T05:33:08.427Z,1014.20
2018-06-27T05:34:08.425Z,1014.25
2018-06-27T05:35:08.424Z,1014.23
2018-06-27T05:36:08.420Z,1014.26
2018-06-27T05:37:08.416Z,1014.24
2018-06-27T05:38:08.418Z,1014.26
2018-06-27T05:39:08.417Z,1014.29
2018-06-27T05:40:08.418Z,1014.28
2018-06-27T05:41:08.419Z,1014.27
2018-06-27T05:42:08.414Z,1014.26
2018-06-27T05:43:08.411Z,1014.28
2018-06-27T05:44:08.454Z,1014.34
2018-06-27T05:45:08.409Z,1014.28
2018-06-27T05:46:08.406Z,1014.31
2018-06-27T05:47:08.404Z,1014.30
2018-06-27T05:48:08.401Z,1014.28
2018-06-27T05:49:08.405Z,1014.29
2018-06-27T05:50:08.404Z,1014.30
2018-06-27T05:51:08.401Z,1014.32
2018-06-27T05:52:08.399Z,1014.33
2018-06-27T05:53:08.397Z,1014.31
2018-06-27T05:54:08.392Z,1014.32
2018-06-27T05:55:08.394Z,1014.31
2018-06-27T05:56:08.393Z,1014.33
2018-06-27T05:57:08.391Z,1014.34
2018-06-27T05:58:08.460Z,1014.34
2018-06-27T05:59:08.389Z,1014.32
2018-06-27T06:00:08.391Z,1014.30
2018-06-27T06:01:08.384Z,1014.30
2018-06-27T06:02:08.386Z,1014.32
2018-06-27T06:03:08.387Z,1014.29
2018-06-27T06:04:08.384Z,1014.38
2018-06-27T06:05:08.381Z,1014.37
2018-06-27T06:06:08.383Z,1014.37
2018-06-27T06:07:08.381Z,1014.38
2018-06-27T06:08:08.381Z,1014.43
2018-06-27T06:09:08.378Z,1014.43
2018-06-27T06:10:08.379Z,1014.43
2018-06-27T06:11:08.408Z,1014.41
2018-06-27T06:12:08.376Z,1014.46
2018-06-27T06:13:08.374Z,1014.41
2018-06-27T06:14:08.375Z,1014.42
2018-06-27T06:15:08.374Z,1014.44
2018-06-27T06:16:08.371Z,1014.42
2018-06-27T06:17:08.371Z,1014.47
2018-06-27T06:18:08.368Z,1014.44
2018-06-27T06:19:08.368Z,1014.46
2018-06-27T06:20:08.371Z,1014.45
2018-06-27T06:21:08.365Z,1014.44
2018-06-27T06:22:08.366Z,1014.47
2018-06-27T06:23:08.365Z,1014.47
2018-06-27T06:24:08.362Z,1014.48
2018-06-27T06:25:08.369Z,1014.51
2018-06-27T06:26:08.363Z,1014.45
2018-06-27T06:27:08.364Z,1014.46
2018-06-27T06:28:08.364Z,1014.46
2018-06-27T06:29:08.360Z,1014.47
2018-06-27T06:30:08.359Z,1014.47
2018-06-27T06:31:08.358Z,1014.48
2018-06-27T06:32:08.381Z,1014.44
2018-06-27T06:33:08.357Z,1014.47
2018-06-27T06:34:08.363Z,1014.42
2018-06-27T06:35:08.356Z,1014.50
2018-06-27T06:36:08.356Z,1014.50
2018-06-27T06:37:08.353Z,1014.48
2018-06-27T06:38:08.351Z,1014.44
2018-06-27T06:39:08.353Z,1014.44
2018-06-27T06:40:08.354Z,1014.45
2018-06-27T06:41:08.352Z,1014.47
2018-06-27T06:42:08.350Z,1014.47
2018-06-27T06:43:08.350Z,1014.48
2018-06-27T06:44:08.345Z,1014.43
2018-06-27T06:45:08.348Z,1014.43
2018-06-27T06:46:08.417Z,1014.39
2018-06-27T06:47:08.345Z,1014.40
2018-06-27T06:48:08.350Z,1014.36
2018-06-27T06:49:08.341Z,1014.37
2018-06-27T06:50:08.346Z,1014.37
2018-06-27T06:51:08.343Z,1014.35
2018-06-27T06:52:08.344Z,1014.36
2018-06-27T06:53:08.342Z,1014.32
2018-06-27T06:54:08.341Z,1014.31
2018-06-27T06:55:08.335Z,1014.29
2018-06-27T06:56:08.342Z,1014.29
2018-06-27T06:57:08.341Z,1014.27
2018-06-27T06:58:08.334Z,1014.30
2018-06-27T06:59:08.333Z,1014.27
2018-06-27T07:00:08.337Z,1014.29
2018-06-27T07:01:08.335Z,1014.31
2018-06-27T07:02:08.334Z,1014.32
2018-06-27T07:03:08.333Z,1014.34
2018-06-27T07:04:08.335Z,1014.35
2018-06-27T07:05:08.330Z,1014.33
2018-06-27T07:06:08.332Z,1014.33
2018-06-27T07:07:08.330Z,1014.30
2018-06-27T07:08:08.332Z,1014.30
2018-06-27T07:09:08.329Z,1014.28
2018-06-27T07:10:08.326Z,1014.31
2018-06-27T07:11:08.421Z,1014.32
2018-06-27T07:12:08.325Z,1014.28
2018-06-27T07:13:09.018Z,1014.30
2018-06-27T07:14:08.323Z,1014.32
2018-06-27T07:15:08.327Z,1014.27
2018-06-27T07:16:08.324Z,1014.30
2018-06-27T07:17:08.322Z,1014.34
2018-06-27T07:18:08.324Z,1014.32
2018-06-27T07:19:08.321Z,1014.29
2018-06-27T07:20:08.321Z,1014.27
2018-06-27T07:21:08.320Z,1014.26
2018-06-27T07:22:08.321Z,1014.32
2018-06-27T07:23:08.334Z,1014.27
2018-06-27T07:24:08.322Z,1014.26
2018-06-27T07:25:08.325Z,1014.28
2018-06-27T07:26:08.321Z,1014.29
2018-06-27T07:27:08.318Z,1014.27
2018-06-27T07:28:08.317Z,1014.30
2018-06-27T07:29:08.316Z,1014.32
2018-06-27T07:30:08.317Z,1014.33
2018-06-27T07:31:08.316Z,1014.28
2018-06-27T07:32:08.316Z,1014.31
2018-06-27T07:33:08.316Z,1014.34
2018-06-27T07:34:08.321Z,1014.33
2018-06-27T07:35:08.315Z,1014.31
2018-06-27T07:36:08.314Z,1014.31
2018-06-27T07:37:08.314Z,1014.31
2018-06-27T07:38:08.315Z,1014.31
2018-06-27T07:39:08.315Z,1014.31
2018-06-27T07:40:08.316Z,1014.27
2018-06-27T07:41:08.321Z,1014.28
2018-06-27T07:42:08.320Z,1014.25
2018-06-27T07:43:08.314Z,1014.25
2018-06-27T07:44:08.314Z,1014.30
2018-06-27T07:45:08.315Z,1014.27
2018-06-27T07:46:08.316Z,1014.26
2018-06-27T07:47:08.318Z,1014.30
2018-06-27T07:48:08.316Z,1014.27
2018-06-27T07:49:08.309Z,1014.26
2018-06-27T07:50:08.312Z,1014.28
2018-06-27T07:51:08.313Z,1014.24
2018-06-27T07:52:08.323Z,1014.25
2018-06-27T07:53:08.314Z,1014.25
2018-06-27T07:54:08.318Z,1014.26
2018-06-27T07:55:08.322Z,1014.23
2018-06-27T07:56:08.324Z,1014.24
2018-06-27T07:57:08.315Z,1014.23
2018-06-27T07:58:08.318Z,1014.20
2018-06-27T07:59:08.310Z,1014.18
2018-06-27T08:00:08.312Z,1014.19
2018-06-27T08:01:08.316Z,1014.16
2018-06-27T08:02:08.315Z,1014.15
2018-06-27T08:03:08.317Z,1014.16
2018-06-27T08:04:08.318Z,1014.13
2018-06-27T08:05:08.315Z,1014.12
2018-06-27T08:06:08.313Z,1014.09
2018-06-27T08:07:08.323Z,1014.13
2018-06-27T08:08:08.317Z,1014.12
2018-06-27T08:09:08.320Z,1014.15
2018-06-27T08:10:08.320Z,1014.15
2018-06-27T08:11:08.323Z,1014.16
2018-06-27T08:12:08.324Z,1014.13
2018-06-27T08:13:08.318Z,1014.18
2018-06-27T08:14:08.319Z,1014.17
2018-06-27T08:15:08.321Z,1014.15
2018-06-27T08:16:08.318Z,1014.14
2018-06-27T08:17:08.320Z,1014.17
2018-06-27T08:18:08.319Z,1014.17
2018-06-27T08:19:08.323Z,1014.11
2018-06-27T08:20:08.326Z,1014.08
2018-06-27T08:21:08.318Z,1014.12
2018-06-27T08:22:08.319Z,1014.10
2018-06-27T08:23:08.320Z,1014.09
2018-06-27T08:24:08.320Z,1014.07
2018-06-27T08:25:08.320Z,1014.04
2018-06-27T08:26:08.363Z,1014.03
2018-06-27T08:27:08.319Z,1014.08
2018-06-27T08:28:08.323Z,1014.06
2018-06-27T08:29:08.328Z,1014.04
2018-06-27T08:30:08.318Z,1014.03
2018-06-27T08:31:08.323Z,1013.99
2018-06-27T08:32:08.324Z,1014.00
2018-06-27T08:33:08.321Z,1013.96
2018-06-27T08:34:08.324Z,1013.99
2018-06-27T08:35:08.328Z,1013.99
2018-06-27T08:36:08.321Z,1014.00
2018-06-27T08:37:08.326Z,1013.97
2018-06-27T08:38:08.326Z,1013.98
2018-06-27T08:39:08.324Z,1014.00
2018-06-27T08:40:08.323Z,1013.97
2018-06-27T08:41:08.322Z,1013.95
2018-06-27T08:42:08.327Z,1013.96
2018-06-27T08:43:08.331Z,1013.95
2018-06-27T08:44:08.328Z,1013.92
2018-06-27T08:45:08.331Z,1013.96
2018-06-27T08:46:08.327Z,1013.88
2018-06-27T08:47:08.326Z,1013.88
2018-06-27T08:48:08.332Z,1013.87
2018-06-27T08:49:08.336Z,1013.86
2018-06-27T08:50:08.332Z,1013.87
2018-06-27T08:51:08.333Z,1013.86
2018-06-27T08:52:08.390Z,1013.75
2018-06-27T08:53:08.334Z,1013.79
2018-06-27T08:54:08.339Z,1013.74
2018-06-27T08:55:08.337Z,1013.69
2018-06-27T08:56:08.341Z,1013.70
2018-06-27T08:57:08.351Z,1013.71
2018-06-27T08:58:08.339Z,1013.72
2018-06-27T08:59:08.355Z,1013.67
2018-06-27T09:00:08.346Z,1013.69
2018-06-27T09:01:08.347Z,1013.66
2018-06-27T09:02:08.343Z,1013.65
2018-06-27T09:03:08.346Z,1013.70
2018-06-27T09:04:08.347Z,1013.69
2018-06-27T09:05:08.344Z,1013.66
2018-06-27T09:06:08.345Z,1013.66
2018-06-27T09:07:08.351Z,1013.69
2018-06-27T09:08:08.349Z,1013.70
2018-06-27T09:09:08.347Z,1013.66
2018-06-27T09:10:08.354Z,1013.66
2018-06-27T09:11:08.351Z,1013.62
2018-06-27T09:12:08.350Z,1013.60
2018-06-27T09:13:08.350Z,1013.63
2018-06-27T09:14:08.364Z,1013.61
2018-06-27T09:15:08.354Z,1013.65
2018-06-27T09:16:08.354Z,1013.62
2018-06-27T09:17:08.354Z,1013.61
2018-06-27T09:18:08.360Z,1013.64
2018-06-27T09:19:08.357Z,1013.66
2018-06-27T09:20:08.357Z,1013.65
2018-06-27T09:21:08.358Z,1013.63
2018-06-27T09:22:08.359Z,1013.67
2018-06-27T09:23:08.362Z,1013.70
2018-06-27T09:24:08.365Z,1013.68
2018-06-27T09:25:08.367Z,1013.70
2018-06-27T09:26:08.374Z,1013.69
2018-06-27T09:27:08.364Z,1013.70
2018-06-27T09:28:08.366Z,1013.68
2018-06-27T09:29:08.368Z,1013.67
2018-06-27T09:30:08.368Z,1013.66
2018-06-27T09:31:08.393Z,1013.59
2018-06-27T09:32:08.371Z,1013.47
2018-06-27T09:33:08.373Z,1013.54
2018-06-27T09:34:08.468Z,1013.48
2018-06-27T09:35:08.375Z,1013.52
2018-06-27T09:36:08.377Z,1013.46
2018-06-27T09:37:08.377Z,1013.47
2018-06-27T09:38:08.373Z,1013.52
2018-06-27T09:39:08.380Z,1013.60
2018-06-27T09:40:08.381Z,1013.43
2018-06-27T09:41:08.380Z,1013.52
2018-06-27T09:42:08.385Z,1013.57
2018-06-27T09:43:08.382Z,1013.56
2018-06-27T09:44:08.385Z,1013.55
2018-06-27T09:45:08.386Z,1013.49
2018-06-27T09:46:08.386Z,1013.50
2018-06-27T09:47:08.389Z,1013.54
2018-06-27T09:48:08.388Z,1013.51
2018-06-27T09:49:08.389Z,1013.45
2018-06-27T09:50:08.391Z,1013.42
2018-06-27T09:51:09.072Z,1013.42
2018-06-27T09:52:08.389Z,1013.39
2018-06-27T09:53:08.394Z,1013.43
2018-06-27T09:54:08.395Z,1013.39
2018-06-27T09:55:08.400Z,1013.33
2018-06-27T09:56:08.399Z,1013.31
2018-06-27T09:57:08.429Z,1013.34
2018-06-27T09:58:08.396Z,1013.32
2018-06-27T09:59:08.402Z,1013.35
2018-06-27T10:00:08.405Z,1013.39
2018-06-27T10:01:08.401Z,1013.40
2018-06-27T10:02:08.439Z,1013.30
2018-06-27T10:03:08.405Z,1013.30
2018-06-27T10:04:08.406Z,1013.27
2018-06-27T10:05:08.407Z,1013.25
2018-06-27T10:06:08.410Z,1013.23
2018-06-27T10:07:08.413Z,1013.24
2018-06-27T10:08:08.411Z,1013.31
2018-06-27T10:09:08.412Z,1013.13
2018-06-27T10:10:08.420Z,1013.18
2018-06-27T10:11:08.417Z,1013.15
2018-06-27T10:12:08.417Z,1013.22
2018-06-27T10:13:08.417Z,1013.16
2018-06-27T10:14:08.420Z,1013.16
2018-06-27T10:15:08.420Z,1013.15
2018-06-27T10:16:08.427Z,1013.15
2018-06-27T10:17:08.441Z,1013.15
2018-06-27T10:18:08.426Z,1013.11
2018-06-27T10:19:08.425Z,1013.11
2018-06-27T10:20:08.425Z,1013.17
2018-06-27T10:21:08.426Z,1013.22
2018-06-27T10:22:08.424Z,1013.18
2018-06-27T10:23:08.430Z,1013.08
2018-06-27T10:24:08.438Z,1013.10
2018-06-27T10:25:08.432Z,1013.13
2018-06-27T10:26:08.433Z,1013.18
2018-06-27T10:27:08.435Z,1013.16
2018-06-27T10:28:08.432Z,1013.18
2018-06-27T10:29:08.438Z,1013.18
2018-06-27T10:30:08.439Z,1013.17
2018-06-27T10:31:08.440Z,1013.18
2018-06-27T10:32:08.442Z,1013.07
2018-06-27T10:33:08.443Z,1013.27
2018-06-27T10:34:08.446Z,1013.12
2018-06-27T10:35:08.444Z,1013.10
2018-06-27T10:36:09.090Z,1013.14
2018-06-27T10:37:08.450Z,1013.18
2018-06-27T10:38:08.450Z,1013.15
2018-06-27T10:39:08.446Z,1013.09
2018-06-27T10:40:08.456Z,1013.21
2018-06-27T10:41:08.454Z,1013.05
2018-06-27T10:42:08.459Z,1013.10
2018-06-27T10:43:08.460Z,1013.15
2018-06-27T10:44:08.464Z,1013.13
2018-06-27T10:45:08.463Z,1013.12
2018-06-27T10:46:08.468Z,1012.95
2018-06-27T10:47:08.468Z,1013.07
2018-06-27T10:48:08.470Z,1012.93
2018-06-27T10:49:08.473Z,1012.92
2018-06-27T10:50:08.478Z,1012.93
2018-06-27T10:51:08.478Z,1013.03
2018-06-27T10:52:08.480Z,1013.03
2018-06-27T10:53:08.480Z,1012.96
2018-06-27T10:54:08.487Z,1012.93
2018-06-27T10:55:08.488Z,1012.96
2018-06-27T10:56:08.492Z,1012.97
2018-06-27T10:57:08.495Z,1012.93
2018-06-27T10:58:08.494Z,1012.93
2018-06-27T10:59:08.497Z,1012.87
2018-06-27T11:00:08.499Z,1012.85
2018-06-27T11:01:08.557Z,1012.83
2018-06-27T11:02:08.504Z,1012.82
2018-06-27T11:03:08.506Z,1012.79
2018-06-27T11:04:08.510Z,1012.85
2018-06-27T11:05:08.510Z,1012.76
2018-06-27T11:06:08.517Z,1012.85
2018-06-27T11:07:08.517Z,1012.73
2018-06-27T11:08:08.517Z,1012.94
2018-06-27T11:09:08.515Z,1012.90
2018-06-27T11:10:08.524Z,1012.86
2018-06-27T11:11:08.521Z,1012.74
2018-06-27T11:12:08.524Z,1012.72
2018-06-27T11:13:08.523Z,1012.79
2018-06-27T11:14:08.586Z,1012.87
2018-06-27T11:15:08.538Z,1012.89
2018-06-27T11:16:08.532Z,1012.74
2018-06-27T11:17:08.534Z,1012.73
2018-06-27T11:18:08.539Z,1012.73
2018-06-27T11:19:08.541Z,1012.76
2018-06-27T11:20:08.549Z,1012.84
2018-06-27T11:21:08.544Z,1012.75
2018-06-27T11:22:08.547Z,1012.62
2018-06-27T11:23:08.546Z,1012.56
2018-06-27T11:24:08.550Z,1012.58
2018-06-27T11:25:08.558Z,1012.61
2018-06-27T11:26:08.558Z,1012.63
2018-06-27T11:27:08.561Z,1012.78
2018-06-27T11:28:08.564Z,1012.94
2018-06-27T11:29:08.560Z,1012.71
2018-06-27T11:30:08.563Z,1013.02
2018-06-27T11:31:08.570Z,1013.04
2018-06-27T11:32:08.572Z,1012.99
2018-06-27T11:33:08.577Z,1013.02
2018-06-27T11:34:08.575Z,1013.01
2018-06-27T11:35:08.586Z,1012.98
2018-06-27T11:36:08.586Z,1012.97
2018-06-27T11:37:08.585Z,1012.84
2018-06-27T11:38:08.589Z,1012.54
2018-06-27T11:40:08.594Z,1012.85
2018-06-27T11:41:08.600Z,1012.93
2018-06-27T11:42:08.601Z,1012.90
2018-06-27T11:43:08.624Z,1012.88
2018-06-27T11:44:08.616Z,1012.99
2018-06-27T11:45:08.613Z,1012.93
2018-06-27T11:46:29.635Z,1012.86
2018-06-27T11:47:08.624Z,1012.83
2018-06-27T11:48:08.634Z,1012.84
2018-06-27T11:49:08.632Z,1012.85
2018-06-27T11:50:08.638Z,1012.82
2018-06-27T11:51:08.642Z,1012.74
2018-06-27T11:52:29.654Z,1012.77
2018-06-27T11:53:08.650Z,1012.73
2018-06-27T11:54:08.657Z,1012.74
2018-06-27T11:55:08.660Z,1012.70
2018-06-27T11:56:08.667Z,1012.72
2018-06-27T11:57:08.671Z,1012.77
2018-06-27T11:58:29.689Z,1012.70
2018-06-27T11:59:08.685Z,1012.75
2018-06-27T12:00:08.688Z,1012.68
2018-06-27T12:01:08.691Z,1012.77
2018-06-27T12:02:08.698Z,1012.75
2018-06-27T12:03:08.703Z,1012.75
2018-06-27T12:04:29.718Z,1012.67
2018-06-27T12:05:08.716Z,1012.62
2018-06-27T12:06:08.720Z,1012.58